Salsa — SKDQ — position and weather

sailwx.info

Track history (hours):
 
Tides and Currents Weather Stations Pressure Air Temp Water Temp Dewpoint Dewpoint Depression Visibility Wind Speed Wind Dir Waves Ship Positions

Salsa

Last reported at 2018-Apr-20 16:16 UTC. Time now 2018-Apr-21 23:00 UTC.
Position N 17°05' W 061°54'.

Length 13 m.

Type: Sailing vessel. MMSI: 265676630.

Date/timePositionNaut miles runAvg speedWind from/ knotsBaromVisibWave heightAir tempDewpointWater temp
2018-Apr-20 16:16N 17°05' W 061°54'1 3.0
2018-Apr-20 16:00N 17°05' W 061°55'2 3.9
2018-Apr-20 15:30N 17°06' W 061°55'3 5.6
2018-Apr-20 15:00N 17°09' W 061°53'3 5.4
2018-Apr-20 14:28N 17°11' W 061°51'3 5.8
2018-Apr-20 14:00N 17°10' W 061°48'3 5.5
2018-Apr-20 13:30N 17°08' W 061°46'2 4.0
2018-Apr-20 13:00N 17°09' W 061°44'0 0.0
2018-Apr-19 21:21N 17°09' W 061°44'0 0.0
2018-Apr-19 21:00N 17°09' W 061°44'0 0.0
2018-Apr-19 20:30N 17°09' W 061°44'0 0.0
2018-Apr-19 20:00N 17°09' W 061°44'0 0.0
2018-Apr-19 19:30N 17°09' W 061°44'0 0.0
2018-Apr-19 19:00N 17°09' W 061°44'0 0.0
2018-Apr-19 18:30N 17°09' W 061°44'0 0.0
2018-Apr-19 18:00N 17°09' W 061°44'0 0.0
2018-Apr-19 17:30N 17°09' W 061°44'0 0.0
2018-Apr-19 17:00N 17°09' W 061°44'0 0.0
2018-Apr-19 16:30N 17°09' W 061°44'0 0.0
2018-Apr-19 16:00N 17°09' W 061°44'0 0.0
2018-Apr-19 15:30N 17°09' W 061°44'0 0.0
2018-Apr-19 15:00N 17°09' W 061°44'0 0.0
2018-Apr-19 14:30N 17°09' W 061°44'0 0.0
2018-Apr-19 14:00N 17°09' W 061°44'0 0.0
2018-Apr-19 13:30N 17°09' W 061°44'0 0.0
2018-Apr-18 21:40N 17°09' W 061°44'0 0.0
2018-Apr-18 21:28N 17°09' W 061°44'0 0.0
2018-Apr-18 20:58N 17°09' W 061°44'0 0.0
2018-Apr-18 20:28N 17°09' W 061°44'0 0.0
2018-Apr-18 19:58N 17°09' W 061°44'0 0.0
2018-Apr-18 19:28N 17°09' W 061°44'0 0.0
2018-Apr-18 18:58N 17°09' W 061°44'0 0.0
2018-Apr-18 18:28N 17°09' W 061°44'0 0.0
2018-Apr-18 17:58N 17°09' W 061°44'0 0.0
2018-Apr-18 14:43N 17°09' W 061°44'0 0.0
2018-Apr-18 14:28N 17°09' W 061°44'0 0.0
2018-Apr-18 13:58N 17°09' W 061°44'0 0.0
2018-Apr-18 13:28N 17°09' W 061°44'0 0.0
2018-Apr-18 12:58N 17°09' W 061°44'0 0.0
2018-Apr-18 12:28N 17°09' W 061°44'0 0.0
2018-Apr-17 22:23N 17°09' W 061°44'0 0.0
2018-Apr-17 21:59N 17°09' W 061°44'1 2.3
2018-Apr-17 21:31N 17°08' W 061°45'2 4.4
2018-Apr-17 21:00N 17°10' W 061°47'2 4.6
2018-Apr-17 20:30N 17°11' W 061°49'2 4.9
2018-Apr-17 20:00N 17°10' W 061°52'2 4.7
2018-Apr-17 19:30N 17°09' W 061°53'2 4.2
2018-Apr-17 19:00N 17°07' W 061°54'2 4.6
2018-Apr-17 18:30N 17°05' W 061°55'2 3.6
2018-Apr-17 17:59N 17°04' W 061°53'1 1.6
2018-Apr-17 17:27N 17°05' W 061°54'0 0.1
2018-Apr-17 16:56N 17°05' W 061°54'0 0.0
2018-Apr-17 16:26N 17°05' W 061°54'0 0.0
2018-Apr-17 15:14N 17°05' W 061°54'0 0.0
2018-Apr-17 14:50N 17°05' W 061°54'0 0.0
2018-Apr-17 14:05N 17°05' W 061°54'0 0.0
2018-Apr-17 13:50N 17°05' W 061°54'0 0.0
2018-Apr-17 13:23N 17°05' W 061°54'0 0.0
2018-Apr-17 12:59N 17°05' W 061°54'0 0.0
2018-Apr-17 12:29N 17°05' W 061°54'0 0.0
2018-Apr-16 21:19N 17°05' W 061°54'0 0.0
2018-Apr-16 20:58N 17°05' W 061°54'0 0.0
2018-Apr-16 20:29N 17°05' W 061°54'2 4.5
2018-Apr-16 20:00N 17°04' W 061°56'3 5.8
2018-Apr-16 19:30N 17°06' W 061°58'2 4.1
2018-Apr-16 19:00N 17°06' W 062°00'  
2018-Apr-14 14:44N 17°47' W 063°02'2 5.9
2018-Apr-14 14:23N 17°49' W 063°03'2 4.3
2018-Apr-14 13:52N 17°51' W 063°04'2 3.5
2018-Apr-14 13:23N 17°53' W 063°04'2 5.2
2018-Apr-14 13:00N 17°55' W 063°05'3 5.9
2018-Apr-14 12:28N 17°58' W 063°05'3 6.0
2018-Apr-14 12:00N 18°01' W 063°06'  
2018-Apr-11 16:45N 18°02' W 063°06'0 0.2
2018-Apr-11 16:30N 18°02' W 063°06'2 3.5
2018-Apr-11 16:00N 18°02' W 063°08'2 3.2
2018-Apr-11 15:29N 18°03' W 063°09'1 3.0
2018-Apr-11 14:59N 18°04' W 063°10'2 3.9
2018-Apr-11 14:27N 18°06' W 063°11'3 5.5
2018-Apr-11 13:58N 18°09' W 063°11'  
Track history (hours):
 
Tides and Currents Weather Stations Pressure Air Temp Water Temp Dewpoint Dewpoint Depression Visibility Wind Speed Wind Dir Waves Ship Positions

Salsa

Last reported at 2018-Apr-20 16:16 UTC. Time now 2018-Apr-21 23:00 UTC.
Position N 17°05' W 061°54'.

Length 13 m.

Type: Sailing vessel. MMSI: 265676630.

Date/timePositionNaut miles runAvg speedWind from/ knotsBaromVisibWave heightAir tempDewpointWater temp
2018-Apr-20 16:16N 17°05' W 061°54'1 3.0
2018-Apr-20 16:00N 17°05' W 061°55'2 3.9
2018-Apr-20 15:30N 17°06' W 061°55'3 5.6
2018-Apr-20 15:00N 17°09' W 061°53'3 5.4
2018-Apr-20 14:28N 17°11' W 061°51'3 5.8
2018-Apr-20 14:00N 17°10' W 061°48'3 5.5
2018-Apr-20 13:30N 17°08' W 061°46'2 4.0
2018-Apr-20 13:00N 17°09' W 061°44'0 0.0
2018-Apr-19 21:21N 17°09' W 061°44'0 0.0
2018-Apr-19 21:00N 17°09' W 061°44'0 0.0
2018-Apr-19 20:30N 17°09' W 061°44'0 0.0
2018-Apr-19 20:00N 17°09' W 061°44'0 0.0
2018-Apr-19 19:30N 17°09' W 061°44'0 0.0
2018-Apr-19 19:00N 17°09' W 061°44'0 0.0
2018-Apr-19 18:30N 17°09' W 061°44'0 0.0
2018-Apr-19 18:00N 17°09' W 061°44'0 0.0
2018-Apr-19 17:30N 17°09' W 061°44'0 0.0
2018-Apr-19 17:00N 17°09' W 061°44'0 0.0
2018-Apr-19 16:30N 17°09' W 061°44'0 0.0
2018-Apr-19 16:00N 17°09' W 061°44'0 0.0
2018-Apr-19 15:30N 17°09' W 061°44'0 0.0
2018-Apr-19 15:00N 17°09' W 061°44'0 0.0
2018-Apr-19 14:30N 17°09' W 061°44'0 0.0
2018-Apr-19 14:00N 17°09' W 061°44'0 0.0
2018-Apr-19 13:30N 17°09' W 061°44'0 0.0
2018-Apr-18 21:40N 17°09' W 061°44'0 0.0
2018-Apr-18 21:28N 17°09' W 061°44'0 0.0
2018-Apr-18 20:58N 17°09' W 061°44'0 0.0
2018-Apr-18 20:28N 17°09' W 061°44'0 0.0
2018-Apr-18 19:58N 17°09' W 061°44'0 0.0
2018-Apr-18 19:28N 17°09' W 061°44'0 0.0
2018-Apr-18 18:58N 17°09' W 061°44'0 0.0
2018-Apr-18 18:28N 17°09' W 061°44'0 0.0
2018-Apr-18 17:58N 17°09' W 061°44'0 0.0
2018-Apr-18 14:43N 17°09' W 061°44'0 0.0
2018-Apr-18 14:28N 17°09' W 061°44'0 0.0
2018-Apr-18 13:58N 17°09' W 061°44'0 0.0
2018-Apr-18 13:28N 17°09' W 061°44'0 0.0
2018-Apr-18 12:58N 17°09' W 061°44'0 0.0
2018-Apr-18 12:28N 17°09' W 061°44'0 0.0
2018-Apr-17 22:23N 17°09' W 061°44'0 0.0
2018-Apr-17 21:59N 17°09' W 061°44'1 2.3
2018-Apr-17 21:31N 17°08' W 061°45'2 4.4
2018-Apr-17 21:00N 17°10' W 061°47'2 4.6
2018-Apr-17 20:30N 17°11' W 061°49'2 4.9
2018-Apr-17 20:00N 17°10' W 061°52'2 4.7
2018-Apr-17 19:30N 17°09' W 061°53'2 4.2
2018-Apr-17 19:00N 17°07' W 061°54'2 4.6
2018-Apr-17 18:30N 17°05' W 061°55'2 3.6
2018-Apr-17 17:59N 17°04' W 061°53'1 1.6
2018-Apr-17 17:27N 17°05' W 061°54'0 0.1
2018-Apr-17 16:56N 17°05' W 061°54'0 0.0
2018-Apr-17 16:26N 17°05' W 061°54'0 0.0
2018-Apr-17 15:14N 17°05' W 061°54'0 0.0
2018-Apr-17 14:50N 17°05' W 061°54'0 0.0
2018-Apr-17 14:05N 17°05' W 061°54'0 0.0
2018-Apr-17 13:50N 17°05' W 061°54'0 0.0
2018-Apr-17 13:23N 17°05' W 061°54'0 0.0
2018-Apr-17 12:59N 17°05' W 061°54'0 0.0
2018-Apr-17 12:29N 17°05' W 061°54'0 0.0
2018-Apr-16 21:19N 17°05' W 061°54'0 0.0
2018-Apr-16 20:58N 17°05' W 061°54'0 0.0
2018-Apr-16 20:29N 17°05' W 061°54'2 4.5
2018-Apr-16 20:00N 17°04' W 061°56'3 5.8
2018-Apr-16 19:30N 17°06' W 061°58'2 4.1
2018-Apr-16 19:00N 17°06' W 062°00'  
2018-Apr-14 14:44N 17°47' W 063°02'2 5.9
2018-Apr-14 14:23N 17°49' W 063°03'2 4.3
2018-Apr-14 13:52N 17°51' W 063°04'2 3.5
2018-Apr-14 13:23N 17°53' W 063°04'2 5.2
2018-Apr-14 13:00N 17°55' W 063°05'3 5.9
2018-Apr-14 12:28N 17°58' W 063°05'3 6.0
2018-Apr-14 12:00N 18°01' W 063°06'  
2018-Apr-11 16:45N 18°02' W 063°06'0 0.2
2018-Apr-11 16:30N 18°02' W 063°06'2 3.5
2018-Apr-11 16:00N 18°02' W 063°08'2 3.2
2018-Apr-11 15:29N 18°03' W 063°09'1 3.0
2018-Apr-11 14:59N 18°04' W 063°10'2 3.9
2018-Apr-11 14:27N 18°06' W 063°11'3 5.5
2018-Apr-11 13:58N 18°09' W 063°11'  

Dump ship's entire track history